sensor_id;sensor_type;location;lat;lon;timestamp;temperature;humidity
4487;DHT22;2256;48.740;9.106;2023-03-03T00:00:39;2.50;99.90
4487;DHT22;2256;48.740;9.106;2023-03-03T00:03:08;2.40;99.90
4487;DHT22;2256;48.740;9.106;2023-03-03T00:05:37;2.40;99.90
4487;DHT22;2256;48.740;9.106;2023-03-03T00:08:05;2.40;99.90
4487;DHT22;2256;48.740;9.106;2023-03-03T00:10:32;2.40;99.90
4487;DHT22;2256;48.740;9.106;2023-03-03T00:12:59;2.30;99.90
4487;DHT22;2256;48.740;9.106;2023-03-03T00:15:26;2.20;99.90
4487;DHT22;2256;48.740;9.106;2023-03-03T00:17:53;2.00;99.90
4487;DHT22;2256;48.740;9.106;2023-03-03T00:20:38;1.80;99.90
4487;DHT22;2256;48.740;9.106;2023-03-03T00:23:18;1.80;99.90
4487;DHT22;2256;48.740;9.106;2023-03-03T00:25:45;1.80;99.90
4487;DHT22;2256;48.740;9.106;2023-03-03T00:28:23;2.00;99.90
4487;DHT22;2256;48.740;9.106;2023-03-03T00:31:00;1.80;99.90
4487;DHT22;2256;48.740;9.106;2023-03-03T00:33:30;1.70;99.90
4487;DHT22;2256;48.740;9.106;2023-03-03T00:36:33;1.80;99.90
4487;DHT22;2256;48.740;9.106;2023-03-03T00:39:18;1.80;99.90
4487;DHT22;2256;48.740;9.106;2023-03-03T00:41:46;1.80;99.90
4487;DHT22;2256;48.740;9.106;2023-03-03T00:44:37;1.60;99.90
4487;DHT22;2256;48.740;9.106;2023-03-03T00:47:21;1.50;99.90
4487;DHT22;2256;48.740;9.106;2023-03-03T00:49:49;1.50;99.90
4487;DHT22;2256;48.740;9.106;2023-03-03T00:52:18;1.40;99.90
4487;DHT22;2256;48.740;9.106;2023-03-03T00:54:45;1.30;99.90
4487;DHT22;2256;48.740;9.106;2023-03-03T00:57:12;1.20;99.90
4487;DHT22;2256;48.740;9.106;2023-03-03T00:59:40;1.20;99.90
4487;DHT22;2256;48.740;9.106;2023-03-03T01:02:07;1.20;99.90
4487;DHT22;2256;48.740;9.106;2023-03-03T01:04:33;1.00;99.90
4487;DHT22;2256;48.740;9.106;2023-03-03T01:07:00;1.10;99.90
4487;DHT22;2256;48.740;9.106;2023-03-03T01:09:29;1.10;99.90
4487;DHT22;2256;48.740;9.106;2023-03-03T01:11:57;1.00;99.90
4487;DHT22;2256;48.740;9.106;2023-03-03T01:14:24;1.00;99.90
4487;DHT22;2256;48.740;9.106;2023-03-03T01:16:51;1.00;99.90
4487;DHT22;2256;48.740;9.106;2023-03-03T01:19:18;1.00;99.90
4487;DHT22;2256;48.740;9.106;2023-03-03T01:21:44;0.90;99.90
4487;DHT22;2256;48.740;9.106;2023-03-03T01:24:11;0.80;99.90
4487;DHT22;2256;48.740;9.106;2023-03-03T01:26:40;0.80;99.90
4487;DHT22;2256;48.740;9.106;2023-03-03T01:29:06;0.80;99.90
4487;DHT22;2256;48.740;9.106;2023-03-03T01:31:33;0.80;99.90
4487;DHT22;2256;48.740;9.106;2023-03-03T01:34:00;0.80;99.90
4487;DHT22;2256;48.740;9.106;2023-03-03T01:36:28;0.70;99.90
4487;DHT22;2256;48.740;9.106;2023-03-03T01:38:55;0.70;99.90
4487;DHT22;2256;48.740;9.106;2023-03-03T01:41:26;0.60;99.90
4487;DHT22;2256;48.740;9.106;2023-03-03T01:43:55;0.70;99.90
4487;DHT22;2256;48.740;9.106;2023-03-03T01:46:40;0.70;99.90
4487;DHT22;2256;48.740;9.106;2023-03-03T01:49:14;0.80;99.90
4487;DHT22;2256;48.740;9.106;2023-03-03T01:51:46;0.80;99.90
4487;DHT22;2256;48.740;9.106;2023-03-03T01:54:17;0.80;99.90
4487;DHT22;2256;48.740;9.106;2023-03-03T01:56:45;0.70;99.90
4487;DHT22;2256;48.740;9.106;2023-03-03T01:59:17;0.70;99.90
4487;DHT22;2256;48.740;9.106;2023-03-03T02:01:46;0.70;99.90
4487;DHT22;2256;48.740;9.106;2023-03-03T02:04:13;0.70;99.90
4487;DHT22;2256;48.740;9.106;2023-03-03T02:06:43;0.60;99.90
4487;DHT22;2256;48.740;9.106;2023-03-03T02:09:15;0.60;99.90
4487;DHT22;2256;48.740;9.106;2023-03-03T02:11:44;0.60;99.90
4487;DHT22;2256;48.740;9.106;2023-03-03T02:14:13;0.60;99.90
4487;DHT22;2256;48.740;9.106;2023-03-03T02:16:40;0.50;99.90
4487;DHT22;2256;48.740;9.106;2023-03-03T02:19:15;0.40;99.90
4487;DHT22;2256;48.740;9.106;2023-03-03T02:21:48;0.30;99.90
4487;DHT22;2256;48.740;9.106;2023-03-03T02:24:19;0.30;99.90
4487;DHT22;2256;48.740;9.106;2023-03-03T02:26:52;0.30;99.90
4487;DHT22;2256;48.740;9.106;2023-03-03T02:29:18;0.20;99.90
4487;DHT22;2256;48.740;9.106;2023-03-03T02:31:45;0.20;99.90
4487;DHT22;2256;48.740;9.106;2023-03-03T02:34:12;0.20;99.90
4487;DHT22;2256;48.740;9.106;2023-03-03T02:36:39;0.30;99.90
4487;DHT22;2256;48.740;9.106;2023-03-03T02:39:09;0.30;99.90
4487;DHT22;2256;48.740;9.106;2023-03-03T02:41:39;0.30;99.90
4487;DHT22;2256;48.740;9.106;2023-03-03T02:44:11;0.40;99.90
4487;DHT22;2256;48.740;9.106;2023-03-03T02:46:41;0.40;99.90
4487;DHT22;2256;48.740;9.106;2023-03-03T02:49:10;0.50;99.90
4487;DHT22;2256;48.740;9.106;2023-03-03T02:51:39;0.60;99.90
4487;DHT22;2256;48.740;9.106;2023-03-03T02:54:07;0.60;99.90
4487;DHT22;2256;48.740;9.106;2023-03-03T02:56:34;0.80;99.90
4487;DHT22;2256;48.740;9.106;2023-03-03T02:59:01;0.90;99.90
4487;DHT22;2256;48.740;9.106;2023-03-03T03:01:30;1.00;99.90
4487;DHT22;2256;48.740;9.106;2023-03-03T03:04:02;1.30;99.90
4487;DHT22;2256;48.740;9.106;2023-03-03T03:06:29;1.20;99.90
4487;DHT22;2256;48.740;9.106;2023-03-03T03:08:55;1.30;99.90
4487;DHT22;2256;48.740;9.106;2023-03-03T03:11:22;1.30;99.90
4487;DHT22;2256;48.740;9.106;2023-03-03T03:13:49;1.40;99.90
4487;DHT22;2256;48.740;9.106;2023-03-03T03:16:16;1.50;99.90
4487;DHT22;2256;48.740;9.106;2023-03-03T03:18:45;1.60;99.90
4487;DHT22;2256;48.740;9.106;2023-03-03T03:21:12;1.60;99.90
4487;DHT22;2256;48.740;9.106;2023-03-03T03:23:39;1.60;99.90
4487;DHT22;2256;48.740;9.106;2023-03-03T03:26:07;1.60;99.90
4487;DHT22;2256;48.740;9.106;2023-03-03T03:28:35;1.60;99.90
4487;DHT22;2256;48.740;9.106;2023-03-03T03:31:02;1.50;99.90
4487;DHT22;2256;48.740;9.106;2023-03-03T03:33:29;1.70;99.90
4487;DHT22;2256;48.740;9.106;2023-03-03T03:35:58;1.60;99.90
4487;DHT22;2256;48.740;9.106;2023-03-03T03:38:26;1.70;99.90
4487;DHT22;2256;48.740;9.106;2023-03-03T03:40:54;1.70;99.90
4487;DHT22;2256;48.740;9.106;2023-03-03T03:43:21;1.70;99.90
4487;DHT22;2256;48.740;9.106;2023-03-03T03:45:48;1.70;99.90
4487;DHT22;2256;48.740;9.106;2023-03-03T03:48:15;1.80;99.90
4487;DHT22;2256;48.740;9.106;2023-03-03T03:50:44;1.70;99.90
4487;DHT22;2256;48.740;9.106;2023-03-03T03:53:12;1.60;99.90
4487;DHT22;2256;48.740;9.106;2023-03-03T03:55:38;1.80;99.90
4487;DHT22;2256;48.740;9.106;2023-03-03T03:58:05;1.70;99.90
4487;DHT22;2256;48.740;9.106;2023-03-03T04:00:32;1.70;99.90
4487;DHT22;2256;48.740;9.106;2023-03-03T04:02:59;1.60;99.90
4487;DHT22;2256;48.740;9.106;2023-03-03T04:05:26;1.50;99.90
4487;DHT22;2256;48.740;9.106;2023-03-03T04:07:53;1.60;99.90
4487;DHT22;2256;48.740;9.106;2023-03-03T04:10:21;1.60;99.90
4487;DHT22;2256;48.740;9.106;2023-03-03T04:12:47;1.60;99.90
4487;DHT22;2256;48.740;9.106;2023-03-03T04:15:14;1.70;99.90
4487;DHT22;2256;48.740;9.106;2023-03-03T04:17:41;1.70;99.90
4487;DHT22;2256;48.740;9.106;2023-03-03T04:20:12;1.70;99.90
4487;DHT22;2256;48.740;9.106;2023-03-03T04:22:39;1.70;99.90
4487;DHT22;2256;48.740;9.106;2023-03-03T04:25:08;1.70;99.90
4487;DHT22;2256;48.740;9.106;2023-03-03T04:27:36;1.70;99.90
4487;DHT22;2256;48.740;9.106;2023-03-03T04:30:05;1.90;99.90
4487;DHT22;2256;48.740;9.106;2023-03-03T04:32:33;1.90;99.90
4487;DHT22;2256;48.740;9.106;2023-03-03T04:35:00;1.80;99.90
4487;DHT22;2256;48.740;9.106;2023-03-03T04:37:27;1.80;99.90
4487;DHT22;2256;48.740;9.106;2023-03-03T04:39:53;1.80;99.90
4487;DHT22;2256;48.740;9.106;2023-03-03T04:42:20;1.90;99.90
4487;DHT22;2256;48.740;9.106;2023-03-03T04:44:48;2.00;99.90
4487;DHT22;2256;48.740;9.106;2023-03-03T04:47:16;2.00;99.90
4487;DHT22;2256;48.740;9.106;2023-03-03T04:49:43;2.00;99.90
4487;DHT22;2256;48.740;9.106;2023-03-03T04:52:10;2.00;99.90
4487;DHT22;2256;48.740;9.106;2023-03-03T04:54:37;2.10;99.90
4487;DHT22;2256;48.740;9.106;2023-03-03T04:57:04;2.10;99.90
4487;DHT22;2256;48.740;9.106;2023-03-03T04:59:30;2.30;99.90
4487;DHT22;2256;48.740;9.106;2023-03-03T05:01:58;2.00;99.90
4487;DHT22;2256;48.740;9.106;2023-03-03T05:04:25;2.10;99.90
4487;DHT22;2256;48.740;9.106;2023-03-03T05:06:52;2.10;99.90
4487;DHT22;2256;48.740;9.106;2023-03-03T05:09:18;2.10;99.90
4487;DHT22;2256;48.740;9.106;2023-03-03T05:11:46;2.10;99.90
4487;DHT22;2256;48.740;9.106;2023-03-03T05:14:13;2.10;99.90
4487;DHT22;2256;48.740;9.106;2023-03-03T05:16:40;2.20;99.90
4487;DHT22;2256;48.740;9.106;2023-03-03T05:19:08;2.30;99.90
4487;DHT22;2256;48.740;9.106;2023-03-03T05:21:36;2.40;99.90
4487;DHT22;2256;48.740;9.106;2023-03-03T05:24:08;2.20;99.90
4487;DHT22;2256;48.740;9.106;2023-03-03T05:26:35;2.50;99.90
4487;DHT22;2256;48.740;9.106;2023-03-03T05:29:02;2.60;99.90
4487;DHT22;2256;48.740;9.106;2023-03-03T05:31:29;2.70;99.90
4487;DHT22;2256;48.740;9.106;2023-03-03T05:33:56;2.80;99.90
4487;DHT22;2256;48.740;9.106;2023-03-03T05:36:24;2.90;99.90
4487;DHT22;2256;48.740;9.106;2023-03-03T05:38:52;3.00;99.90
4487;DHT22;2256;48.740;9.106;2023-03-03T05:41:19;3.10;99.90
4487;DHT22;2256;48.740;9.106;2023-03-03T05:43:46;3.10;99.90
4487;DHT22;2256;48.740;9.106;2023-03-03T05:46:14;3.10;99.90
4487;DHT22;2256;48.740;9.106;2023-03-03T05:48:41;3.20;99.90
4487;DHT22;2256;48.740;9.106;2023-03-03T05:51:09;3.30;99.90
4487;DHT22;2256;48.740;9.106;2023-03-03T05:53:37;3.40;99.90
4487;DHT22;2256;48.740;9.106;2023-03-03T05:56:06;3.30;99.90
4487;DHT22;2256;48.740;9.106;2023-03-03T05:58:33;3.30;99.90
4487;DHT22;2256;48.740;9.106;2023-03-03T06:01:07;3.20;99.90
4487;DHT22;2256;48.740;9.106;2023-03-03T06:03:37;3.00;99.90
4487;DHT22;2256;48.740;9.106;2023-03-03T06:06:05;2.90;99.90
4487;DHT22;2256;48.740;9.106;2023-03-03T06:08:33;2.80;99.90
4487;DHT22;2256;48.740;9.106;2023-03-03T06:11:01;2.60;99.90
4487;DHT22;2256;48.740;9.106;2023-03-03T06:13:31;2.60;99.90
4487;DHT22;2256;48.740;9.106;2023-03-03T06:15:58;2.50;99.90
4487;DHT22;2256;48.740;9.106;2023-03-03T06:18:25;2.50;99.90
4487;DHT22;2256;48.740;9.106;2023-03-03T06:20:52;2.50;99.90
4487;DHT22;2256;48.740;9.106;2023-03-03T06:23:21;2.50;99.90
4487;DHT22;2256;48.740;9.106;2023-03-03T06:25:48;2.60;99.90
4487;DHT22;2256;48.740;9.106;2023-03-03T06:28:16;2.50;99.90
4487;DHT22;2256;48.740;9.106;2023-03-03T06:30:43;2.50;99.90
4487;DHT22;2256;48.740;9.106;2023-03-03T06:33:10;2.50;99.90
4487;DHT22;2256;48.740;9.106;2023-03-03T06:35:38;2.40;99.90
4487;DHT22;2256;48.740;9.106;2023-03-03T06:38:06;2.40;99.90
4487;DHT22;2256;48.740;9.106;2023-03-03T06:40:33;2.40;99.90
4487;DHT22;2256;48.740;9.106;2023-03-03T06:43:01;2.40;99.90
4487;DHT22;2256;48.740;9.106;2023-03-03T06:45:30;2.40;99.90
4487;DHT22;2256;48.740;9.106;2023-03-03T06:47:56;2.40;99.90
4487;DHT22;2256;48.740;9.106;2023-03-03T06:50:23;2.50;99.90
4487;DHT22;2256;48.740;9.106;2023-03-03T06:52:58;2.50;99.90
4487;DHT22;2256;48.740;9.106;2023-03-03T06:55:27;2.50;99.90
4487;DHT22;2256;48.740;9.106;2023-03-03T06:57:54;2.50;99.90
4487;DHT22;2256;48.740;9.106;2023-03-03T07:00:23;2.60;99.90
4487;DHT22;2256;48.740;9.106;2023-03-03T07:02:56;2.60;99.90
4487;DHT22;2256;48.740;9.106;2023-03-03T07:05:25;2.70;99.90
4487;DHT22;2256;48.740;9.106;2023-03-03T07:07:53;2.80;99.90
4487;DHT22;2256;48.740;9.106;2023-03-03T07:10:23;2.70;99.90
4487;DHT22;2256;48.740;9.106;2023-03-03T07:12:50;2.70;99.90
4487;DHT22;2256;48.740;9.106;2023-03-03T07:15:21;3.00;99.90
4487;DHT22;2256;48.740;9.106;2023-03-03T07:17:51;2.90;99.90
4487;DHT22;2256;48.740;9.106;2023-03-03T07:20:22;2.80;99.90
4487;DHT22;2256;48.740;9.106;2023-03-03T07:22:49;3.00;99.90
4487;DHT22;2256;48.740;9.106;2023-03-03T07:25:24;3.00;99.90
4487;DHT22;2256;48.740;9.106;2023-03-03T07:27:55;3.00;99.90
4487;DHT22;2256;48.740;9.106;2023-03-03T07:30:26;2.90;99.90
4487;DHT22;2256;48.740;9.106;2023-03-03T07:32:54;3.00;99.90
4487;DHT22;2256;48.740;9.106;2023-03-03T07:35:32;3.00;99.90
4487;DHT22;2256;48.740;9.106;2023-03-03T07:38:02;3.00;99.90
4487;DHT22;2256;48.740;9.106;2023-03-03T07:40:35;3.00;99.90
4487;DHT22;2256;48.740;9.106;2023-03-03T07:43:24;3.10;99.90
4487;DHT22;2256;48.740;9.106;2023-03-03T07:45:56;3.40;99.90
4487;DHT22;2256;48.740;9.106;2023-03-03T07:48:33;3.50;99.90
4487;DHT22;2256;48.740;9.106;2023-03-03T07:51:10;3.70;99.90
4487;DHT22;2256;48.740;9.106;2023-03-03T07:53:37;3.70;99.90
4487;DHT22;2256;48.740;9.106;2023-03-03T07:56:15;3.80;99.90
4487;DHT22;2256;48.740;9.106;2023-03-03T07:58:42;3.80;99.90
4487;DHT22;2256;48.740;9.106;2023-03-03T08:04:19;4.20;99.90
4487;DHT22;2256;48.740;9.106;2023-03-03T08:06:52;4.50;99.90
4487;DHT22;2256;48.740;9.106;2023-03-03T08:09:35;4.80;99.90
4487;DHT22;2256;48.740;9.106;2023-03-03T08:12:38;5.20;99.90
4487;DHT22;2256;48.740;9.106;2023-03-03T08:15:24;5.60;99.90
4487;DHT22;2256;48.740;9.106;2023-03-03T08:17:53;6.60;99.90
4487;DHT22;2256;48.740;9.106;2023-03-03T08:20:41;7.70;99.90
4487;DHT22;2256;48.740;9.106;2023-03-03T08:23:10;9.00;98.80
4487;DHT22;2256;48.740;9.106;2023-03-03T08:25:44;9.80;96.70
4487;DHT22;2256;48.740;9.106;2023-03-03T08:28:11;9.60;96.00
4487;DHT22;2256;48.740;9.106;2023-03-03T08:30:39;9.30;95.90
4487;DHT22;2256;48.740;9.106;2023-03-03T08:33:05;9.50;95.50
4487;DHT22;2256;48.740;9.106;2023-03-03T08:35:32;9.00;96.00
4487;DHT22;2256;48.740;9.106;2023-03-03T08:37:59;9.50;96.00
4487;DHT22;2256;48.740;9.106;2023-03-03T08:40:27;10.20;94.50
4487;DHT22;2256;48.740;9.106;2023-03-03T08:42:56;10.50;94.00
4487;DHT22;2256;48.740;9.106;2023-03-03T08:45:24;10.50;93.80
4487;DHT22;2256;48.740;9.106;2023-03-03T08:47:51;11.00;93.70
4487;DHT22;2256;48.740;9.106;2023-03-03T08:50:18;10.40;93.70
4487;DHT22;2256;48.740;9.106;2023-03-03T08:52:46;10.10;93.60
4487;DHT22;2256;48.740;9.106;2023-03-03T08:55:13;10.40;93.70
4487;DHT22;2256;48.740;9.106;2023-03-03T08:57:41;11.50;93.30
4487;DHT22;2256;48.740;9.106;2023-03-03T09:00:12;12.70;96.60
4487;DHT22;2256;48.740;9.106;2023-03-03T09:02:39;13.80;93.10
4487;DHT22;2256;48.740;9.106;2023-03-03T09:05:07;14.50;92.30
4487;DHT22;2256;48.740;9.106;2023-03-03T09:07:37;15.20;91.20
4487;DHT22;2256;48.740;9.106;2023-03-03T09:10:06;15.50;86.90
4487;DHT22;2256;48.740;9.106;2023-03-03T09:12:36;15.60;84.40
4487;DHT22;2256;48.740;9.106;2023-03-03T09:15:17;15.60;84.20
4487;DHT22;2256;48.740;9.106;2023-03-03T09:17:57;15.50;83.30
4487;DHT22;2256;48.740;9.106;2023-03-03T09:20:35;15.00;83.60
4487;DHT22;2256;48.740;9.106;2023-03-03T09:23:29;14.60;85.00
4487;DHT22;2256;48.740;9.106;2023-03-03T09:26:23;14.90;84.90
4487;DHT22;2256;48.740;9.106;2023-03-03T09:28:53;14.50;83.30
4487;DHT22;2256;48.740;9.106;2023-03-03T09:31:33;14.30;84.30
4487;DHT22;2256;48.740;9.106;2023-03-03T09:34:13;14.20;84.20
4487;DHT22;2256;48.740;9.106;2023-03-03T09:36:50;12.50;85.90
4487;DHT22;2256;48.740;9.106;2023-03-03T09:39:20;12.10;86.70
4487;DHT22;2256;48.740;9.106;2023-03-03T09:45:12;11.10;90.00
4487;DHT22;2256;48.740;9.106;2023-03-03T09:47:59;11.90;89.80
4487;DHT22;2256;48.740;9.106;2023-03-03T09:50:46;12.00;88.10
4487;DHT22;2256;48.740;9.106;2023-03-03T09:53:24;11.30;88.10
4487;DHT22;2256;48.740;9.106;2023-03-03T09:55:58;10.00;90.00
4487;DHT22;2256;48.740;9.106;2023-03-03T09:58:39;9.70;91.00
4487;DHT22;2256;48.740;9.106;2023-03-03T10:01:30;9.70;91.60
4487;DHT22;2256;48.740;9.106;2023-03-03T10:04:14;9.70;91.50
4487;DHT22;2256;48.740;9.106;2023-03-03T10:06:45;9.70;91.70
4487;DHT22;2256;48.740;9.106;2023-03-03T10:09:40;9.80;91.80
4487;DHT22;2256;48.740;9.106;2023-03-03T10:12:15;9.60;91.60
4487;DHT22;2256;48.740;9.106;2023-03-03T10:15:01;9.80;92.10
4487;DHT22;2256;48.740;9.106;2023-03-03T10:17:44;9.70;92.10
4487;DHT22;2256;48.740;9.106;2023-03-03T10:23:18;9.80;91.40
4487;DHT22;2256;48.740;9.106;2023-03-03T10:25:52;9.60;91.70
4487;DHT22;2256;48.740;9.106;2023-03-03T10:31:28;9.20;92.00
4487;DHT22;2256;48.740;9.106;2023-03-03T10:34:06;8.80;92.70
4487;DHT22;2256;48.740;9.106;2023-03-03T10:36:50;8.40;92.80
4487;DHT22;2256;48.740;9.106;2023-03-03T10:39:39;8.10;93.00
4487;DHT22;2256;48.740;9.106;2023-03-03T10:42:16;8.00;93.20
4487;DHT22;2256;48.740;9.106;2023-03-03T10:45:17;7.90;93.50
4487;DHT22;2256;48.740;9.106;2023-03-03T10:48:07;7.80;93.60
4487;DHT22;2256;48.740;9.106;2023-03-03T10:50:49;8.00;93.90
4487;DHT22;2256;48.740;9.106;2023-03-03T10:53:25;8.00;93.50
4487;DHT22;2256;48.740;9.106;2023-03-03T10:56:14;8.00;93.70
4487;DHT22;2256;48.740;9.106;2023-03-03T10:59:02;8.10;93.50
4487;DHT22;2256;48.740;9.106;2023-03-03T11:01:41;8.30;93.30
4487;DHT22;2256;48.740;9.106;2023-03-03T11:04:47;8.50;93.10
4487;DHT22;2256;48.740;9.106;2023-03-03T11:07:21;8.60;93.30
4487;DHT22;2256;48.740;9.106;2023-03-03T11:09:59;8.70;92.80
4487;DHT22;2256;48.740;9.106;2023-03-03T11:12:33;8.90;92.70
4487;DHT22;2256;48.740;9.106;2023-03-03T11:15:31;8.70;93.20
4487;DHT22;2256;48.740;9.106;2023-03-03T11:18:14;8.40;93.00
4487;DHT22;2256;48.740;9.106;2023-03-03T11:20:49;8.40;93.40
4487;DHT22;2256;48.740;9.106;2023-03-03T11:23:45;8.40;93.20
4487;DHT22;2256;48.740;9.106;2023-03-03T11:26:33;8.50;93.00
4487;DHT22;2256;48.740;9.106;2023-03-03T11:29:21;8.50;93.20
4487;DHT22;2256;48.740;9.106;2023-03-03T11:31:54;8.50;93.00
4487;DHT22;2256;48.740;9.106;2023-03-03T11:34:50;8.60;92.90
4487;DHT22;2256;48.740;9.106;2023-03-03T11:37:22;8.50;93.00
4487;DHT22;2256;48.740;9.106;2023-03-03T11:39:55;8.60;93.50
4487;DHT22;2256;48.740;9.106;2023-03-03T11:42:30;8.70;93.50
4487;DHT22;2256;48.740;9.106;2023-03-03T11:45:02;8.60;93.40
4487;DHT22;2256;48.740;9.106;2023-03-03T11:47:33;8.50;93.50
4487;DHT22;2256;48.740;9.106;2023-03-03T11:50:08;8.40;93.70
4487;DHT22;2256;48.740;9.106;2023-03-03T11:52:43;8.20;93.80
4487;DHT22;2256;48.740;9.106;2023-03-03T11:55:16;8.20;94.10
4487;DHT22;2256;48.740;9.106;2023-03-03T11:57:50;8.10;93.80
4487;DHT22;2256;48.740;9.106;2023-03-03T12:00:25;8.10;93.90
4487;DHT22;2256;48.740;9.106;2023-03-03T12:03:24;8.40;94.10
4487;DHT22;2256;48.740;9.106;2023-03-03T12:06:00;8.50;93.50
4487;DHT22;2256;48.740;9.106;2023-03-03T12:11:47;8.30;93.30
4487;DHT22;2256;48.740;9.106;2023-03-03T12:14:27;8.30;93.60
4487;DHT22;2256;48.740;9.106;2023-03-03T12:17:00;8.40;93.80
4487;DHT22;2256;48.740;9.106;2023-03-03T12:19:34;8.40;93.40
4487;DHT22;2256;48.740;9.106;2023-03-03T12:22:30;8.40;93.50
4487;DHT22;2256;48.740;9.106;2023-03-03T12:28:02;8.00;93.90
4487;DHT22;2256;48.740;9.106;2023-03-03T12:31:02;7.60;94.00
4487;DHT22;2256;48.740;9.106;2023-03-03T12:33:39;7.70;93.70
4487;DHT22;2256;48.740;9.106;2023-03-03T12:36:18;7.80;94.00
4487;DHT22;2256;48.740;9.106;2023-03-03T12:38:52;7.90;93.90
4487;DHT22;2256;48.740;9.106;2023-03-03T12:41:24;7.90;93.90
4487;DHT22;2256;48.740;9.106;2023-03-03T12:43:55;8.10;94.00
4487;DHT22;2256;48.740;9.106;2023-03-03T12:46:34;8.10;94.10
4487;DHT22;2256;48.740;9.106;2023-03-03T12:49:05;8.40;93.80
4487;DHT22;2256;48.740;9.106;2023-03-03T12:51:46;8.50;93.50
4487;DHT22;2256;48.740;9.106;2023-03-03T12:57:18;8.40;92.60
4487;DHT22;2256;48.740;9.106;2023-03-03T13:00:00;8.20;93.00
4487;DHT22;2256;48.740;9.106;2023-03-03T13:02:38;8.40;93.20
4487;DHT22;2256;48.740;9.106;2023-03-03T13:05:17;8.40;93.20
4487;DHT22;2256;48.740;9.106;2023-03-03T13:07:53;8.20;93.50
4487;DHT22;2256;48.740;9.106;2023-03-03T13:10:26;8.20;93.40
4487;DHT22;2256;48.740;9.106;2023-03-03T13:13:00;8.20;93.60
4487;DHT22;2256;48.740;9.106;2023-03-03T13:15:30;8.40;93.40
4487;DHT22;2256;48.740;9.106;2023-03-03T13:18:15;8.60;93.40
4487;DHT22;2256;48.740;9.106;2023-03-03T13:20:50;8.90;93.10
4487;DHT22;2256;48.740;9.106;2023-03-03T13:23:31;9.10;92.70
4487;DHT22;2256;48.740;9.106;2023-03-03T13:26:02;9.10;92.50
4487;DHT22;2256;48.740;9.106;2023-03-03T13:28:35;9.10;92.60
4487;DHT22;2256;48.740;9.106;2023-03-03T13:31:09;8.80;92.70
4487;DHT22;2256;48.740;9.106;2023-03-03T13:33:39;8.60;93.00
4487;DHT22;2256;48.740;9.106;2023-03-03T13:36:09;8.60;92.90
4487;DHT22;2256;48.740;9.106;2023-03-03T13:38:41;8.70;92.80
4487;DHT22;2256;48.740;9.106;2023-03-03T13:41:16;8.80;93.60
4487;DHT22;2256;48.740;9.106;2023-03-03T13:43:47;9.00;92.90
4487;DHT22;2256;48.740;9.106;2023-03-03T13:46:20;8.90;92.50
4487;DHT22;2256;48.740;9.106;2023-03-03T13:49:07;8.90;92.90
4487;DHT22;2256;48.740;9.106;2023-03-03T13:51:43;9.00;92.60
4487;DHT22;2256;48.740;9.106;2023-03-03T13:54:23;8.90;92.50
4487;DHT22;2256;48.740;9.106;2023-03-03T13:57:09;8.90;92.60
4487;DHT22;2256;48.740;9.106;2023-03-03T13:59:44;9.20;92.20
4487;DHT22;2256;48.740;9.106;2023-03-03T14:02:33;9.00;92.00
4487;DHT22;2256;48.740;9.106;2023-03-03T14:05:12;8.80;92.60
4487;DHT22;2256;48.740;9.106;2023-03-03T14:07:43;8.70;92.80
4487;DHT22;2256;48.740;9.106;2023-03-03T14:10:17;8.70;92.80
4487;DHT22;2256;48.740;9.106;2023-03-03T14:12:52;8.70;92.90
4487;DHT22;2256;48.740;9.106;2023-03-03T14:15:24;8.60;93.50
4487;DHT22;2256;48.740;9.106;2023-03-03T14:18:11;8.70;93.30
4487;DHT22;2256;48.740;9.106;2023-03-03T14:20:50;8.30;93.10
4487;DHT22;2256;48.740;9.106;2023-03-03T14:23:20;8.40;93.40
4487;DHT22;2256;48.740;9.106;2023-03-03T14:26:07;8.70;93.50
4487;DHT22;2256;48.740;9.106;2023-03-03T14:28:38;8.60;93.40
4487;DHT22;2256;48.740;9.106;2023-03-03T14:31:16;8.80;93.20
4487;DHT22;2256;48.740;9.106;2023-03-03T14:33:56;8.90;93.00
4487;DHT22;2256;48.740;9.106;2023-03-03T14:36:30;8.90;92.60
4487;DHT22;2256;48.740;9.106;2023-03-03T14:39:00;8.70;93.10
4487;DHT22;2256;48.740;9.106;2023-03-03T14:41:36;8.50;93.00
4487;DHT22;2256;48.740;9.106;2023-03-03T14:44:24;8.40;93.40
4487;DHT22;2256;48.740;9.106;2023-03-03T14:47:05;8.60;93.20
4487;DHT22;2256;48.740;9.106;2023-03-03T14:49:38;8.50;93.40
4487;DHT22;2256;48.740;9.106;2023-03-03T14:52:19;8.50;93.40
4487;DHT22;2256;48.740;9.106;2023-03-03T14:54:48;8.60;93.30
4487;DHT22;2256;48.740;9.106;2023-03-03T14:57:18;8.60;93.20
4487;DHT22;2256;48.740;9.106;2023-03-03T14:59:56;8.50;93.00
4487;DHT22;2256;48.740;9.106;2023-03-03T15:02:29;8.50;93.20
4487;DHT22;2256;48.740;9.106;2023-03-03T15:05:20;8.40;93.20
4487;DHT22;2256;48.740;9.106;2023-03-03T15:07:51;8.50;93.30
4487;DHT22;2256;48.740;9.106;2023-03-03T15:10:33;8.50;93.10
4487;DHT22;2256;48.740;9.106;2023-03-03T15:13:22;8.50;93.10
4487;DHT22;2256;48.740;9.106;2023-03-03T15:16:07;8.50;93.30
4487;DHT22;2256;48.740;9.106;2023-03-03T15:21:43;8.50;93.60
4487;DHT22;2256;48.740;9.106;2023-03-03T15:24:19;8.60;93.60
4487;DHT22;2256;48.740;9.106;2023-03-03T15:26:53;8.60;93.30
4487;DHT22;2256;48.740;9.106;2023-03-03T15:29:25;8.80;93.30
4487;DHT22;2256;48.740;9.106;2023-03-03T15:31:59;8.60;93.50
4487;DHT22;2256;48.740;9.106;2023-03-03T15:34:38;8.50;93.70
4487;DHT22;2256;48.740;9.106;2023-03-03T15:37:16;8.50;93.90
4487;DHT22;2256;48.740;9.106;2023-03-03T15:39:52;8.40;94.10
4487;DHT22;2256;48.740;9.106;2023-03-03T15:42:28;8.60;93.80
4487;DHT22;2256;48.740;9.106;2023-03-03T15:45:05;8.50;93.80
4487;DHT22;2256;48.740;9.106;2023-03-03T15:47:55;8.40;93.90
4487;DHT22;2256;48.740;9.106;2023-03-03T15:50:35;8.30;93.80
4487;DHT22;2256;48.740;9.106;2023-03-03T15:53:22;8.30;93.90
4487;DHT22;2256;48.740;9.106;2023-03-03T15:56:02;8.10;94.10
4487;DHT22;2256;48.740;9.106;2023-03-03T15:59:04;8.10;94.00
4487;DHT22;2256;48.740;9.106;2023-03-03T16:01:40;8.20;94.10
4487;DHT22;2256;48.740;9.106;2023-03-03T16:04:13;8.10;94.20
4487;DHT22;2256;48.740;9.106;2023-03-03T16:06:47;8.10;94.40
4487;DHT22;2256;48.740;9.106;2023-03-03T16:09:35;8.00;94.40
4487;DHT22;2256;48.740;9.106;2023-03-03T16:12:16;7.90;94.70
4487;DHT22;2256;48.740;9.106;2023-03-03T16:15:12;8.10;94.30
4487;DHT22;2256;48.740;9.106;2023-03-03T16:17:44;8.10;94.40
4487;DHT22;2256;48.740;9.106;2023-03-03T16:20:18;8.00;94.50
4487;DHT22;2256;48.740;9.106;2023-03-03T16:22:56;8.10;94.50
4487;DHT22;2256;48.740;9.106;2023-03-03T16:25:38;8.10;94.30
4487;DHT22;2256;48.740;9.106;2023-03-03T16:28:14;8.00;94.40
4487;DHT22;2256;48.740;9.106;2023-03-03T16:30:49;8.00;94.50
4487;DHT22;2256;48.740;9.106;2023-03-03T16:33:21;7.90;94.60
4487;DHT22;2256;48.740;9.106;2023-03-03T16:35:57;7.80;94.70
4487;DHT22;2256;48.740;9.106;2023-03-03T16:38:30;7.80;94.80
4487;DHT22;2256;48.740;9.106;2023-03-03T16:41:00;7.70;95.00
4487;DHT22;2256;48.740;9.106;2023-03-03T16:43:39;7.60;95.00
4487;DHT22;2256;48.740;9.106;2023-03-03T16:46:20;7.60;94.90
4487;DHT22;2256;48.740;9.106;2023-03-03T16:48:53;7.50;95.20
4487;DHT22;2256;48.740;9.106;2023-03-03T16:51:32;7.40;95.20
4487;DHT22;2256;48.740;9.106;2023-03-03T16:54:04;7.30;95.40
4487;DHT22;2256;48.740;9.106;2023-03-03T16:56:36;7.30;95.50
4487;DHT22;2256;48.740;9.106;2023-03-03T16:59:40;7.20;95.60
4487;DHT22;2256;48.740;9.106;2023-03-03T17:02:39;7.10;95.60
4487;DHT22;2256;48.740;9.106;2023-03-03T17:05:16;6.90;95.90
4487;DHT22;2256;48.740;9.106;2023-03-03T17:07:53;6.80;96.00
4487;DHT22;2256;48.740;9.106;2023-03-03T17:10:26;6.70;96.20
4487;DHT22;2256;48.740;9.106;2023-03-03T17:13:06;6.60;96.30
4487;DHT22;2256;48.740;9.106;2023-03-03T17:15:43;6.60;96.40
4487;DHT22;2256;48.740;9.106;2023-03-03T17:18:15;6.40;96.60
4487;DHT22;2256;48.740;9.106;2023-03-03T17:20:47;6.30;96.90
4487;DHT22;2256;48.740;9.106;2023-03-03T17:23:25;6.10;97.10